Resolve — WDD7117 — position and weather

sailwx.info

Track history (hours):
 
Tides and Currents Weather Stations Pressure Air Temp Water Temp Dewpoint Dewpoint Depression Visibility Wind Speed Wind Dir Waves Ship Positions

Resolve

Owner: Intrepid Ship Management, jacksonville, FL. More information available from US FCC via Universal Licensing System and Coast Guard Vessel Documentation Center.

Last reported at 2017-Oct-20 03:29 UTC. Time now 2017-Oct-22 13:32 UTC.
Position N 27°07' W 079°60'.

Length 209 m; draft 9 m.

Type: Towing. MMSI: 367336000.

Date/timePositionNaut miles runAvg speedWind from/ knotsBaromVisibWave heightAir tempDewpointWater temp
2017-Oct-20 03:29N 27°07' W 079°60'511.3
2017-Oct-20 03:00N 27°02' W 079°59'611.3
2017-Oct-20 02:30N 26°56' W 079°58'611.6
2017-Oct-20 02:00N 26°50' W 079°58'811.3
2017-Oct-20 01:16N 26°42' W 079°57'310.4
2017-Oct-20 01:00N 26°39' W 079°57'510.0
2017-Oct-20 00:30N 26°34' W 079°57'510.5
2017-Oct-20 00:00N 26°29' W 079°58'511.1
2017-Oct-19 23:30N 26°24' W 079°58'612.3
2017-Oct-19 23:00N 26°17' W 079°58'612.9
2017-Oct-19 22:30N 26°11' W 079°59'713.6
2017-Oct-19 22:00N 26°04' W 079°60'713.7
2017-Oct-19 21:30N 25°57' W 079°60'714.1
2017-Oct-19 21:00N 25°50' W 080°00'714.0
2017-Oct-19 20:30N 25°43' W 080°00'714.0
2017-Oct-19 20:00N 25°36' W 080°01'714.2
2017-Oct-19 19:30N 25°29' W 080°01'714.5
2017-Oct-19 19:00N 25°22' W 080°01'  
2017-Oct-16 05:52N 29°22' W 094°51'  
2017-Oct-10 07:27N 24°34' W 080°60'410.1
2017-Oct-10 07:00N 24°35' W 080°55'5 9.5
2017-Oct-10 06:31N 24°37' W 080°50'4 8.9
2017-Oct-10 06:00N 24°38' W 080°45'4 8.7
2017-Oct-10 05:30N 24°41' W 080°42'4 8.9
2017-Oct-10 05:00N 24°43' W 080°38'4 9.0
2017-Oct-10 04:30N 24°46' W 080°34'5 9.2
2017-Oct-10 04:00N 24°49' W 080°29'5 9.1
2017-Oct-10 03:30N 24°51' W 080°25'  
Track history (hours):
 
Tides and Currents Weather Stations Pressure Air Temp Water Temp Dewpoint Dewpoint Depression Visibility Wind Speed Wind Dir Waves Ship Positions

Resolve

Owner: Intrepid Ship Management, jacksonville, FL. More information available from US FCC via Universal Licensing System and Coast Guard Vessel Documentation Center.

Last reported at 2017-Oct-20 03:29 UTC. Time now 2017-Oct-22 13:32 UTC.
Position N 27°07' W 079°60'.

Length 209 m; draft 9 m.

Type: Towing. MMSI: 367336000.

Date/timePositionNaut miles runAvg speedWind from/ knotsBaromVisibWave heightAir tempDewpointWater temp
2017-Oct-20 03:29N 27°07' W 079°60'511.3
2017-Oct-20 03:00N 27°02' W 079°59'611.3
2017-Oct-20 02:30N 26°56' W 079°58'611.6
2017-Oct-20 02:00N 26°50' W 079°58'811.3
2017-Oct-20 01:16N 26°42' W 079°57'310.4
2017-Oct-20 01:00N 26°39' W 079°57'510.0
2017-Oct-20 00:30N 26°34' W 079°57'510.5
2017-Oct-20 00:00N 26°29' W 079°58'511.1
2017-Oct-19 23:30N 26°24' W 079°58'612.3
2017-Oct-19 23:00N 26°17' W 079°58'612.9
2017-Oct-19 22:30N 26°11' W 079°59'713.6
2017-Oct-19 22:00N 26°04' W 079°60'713.7
2017-Oct-19 21:30N 25°57' W 079°60'714.1
2017-Oct-19 21:00N 25°50' W 080°00'714.0
2017-Oct-19 20:30N 25°43' W 080°00'714.0
2017-Oct-19 20:00N 25°36' W 080°01'714.2
2017-Oct-19 19:30N 25°29' W 080°01'714.5
2017-Oct-19 19:00N 25°22' W 080°01'  
2017-Oct-16 05:52N 29°22' W 094°51'  
2017-Oct-10 07:27N 24°34' W 080°60'410.1
2017-Oct-10 07:00N 24°35' W 080°55'5 9.5
2017-Oct-10 06:31N 24°37' W 080°50'4 8.9
2017-Oct-10 06:00N 24°38' W 080°45'4 8.7
2017-Oct-10 05:30N 24°41' W 080°42'4 8.9
2017-Oct-10 05:00N 24°43' W 080°38'4 9.0
2017-Oct-10 04:30N 24°46' W 080°34'5 9.2
2017-Oct-10 04:00N 24°49' W 080°29'5 9.1
2017-Oct-10 03:30N 24°51' W 080°25'  

Dump ship's entire track history